createdAt,value
2018-01-07T00:00:36.883Z,101524.63
2018-01-07T00:05:38.243Z,101531.98
2018-01-07T00:10:39.554Z,101547.57
2018-01-07T00:15:40.878Z,101538.91
2018-01-07T00:20:42.219Z,101565.78
2018-01-07T00:25:43.540Z,101571.41
2018-01-07T00:30:45.612Z,101574.45
2018-01-07T00:35:46.939Z,101578.36
2018-01-07T00:40:49.026Z,101587.87
2018-01-07T00:45:50.380Z,101599.14
2018-01-07T00:50:51.735Z,101609.56
2018-01-07T00:56:00.681Z,101613.91
2018-01-07T01:01:02.094Z,101621.69
2018-01-07T01:06:04.183Z,101624.28
2018-01-07T01:11:05.490Z,101642.48
2018-01-07T01:16:07.552Z,101639.44
2018-01-07T01:21:08.862Z,101664.13
2018-01-07T01:26:10.172Z,101665.86
2018-01-07T01:31:12.235Z,101670.59
2018-01-07T01:36:13.596Z,101676.66
2018-01-07T01:41:14.933Z,101691.84
2018-01-07T01:46:16.264Z,101698.31
2018-01-07T01:51:17.599Z,101708.27
2018-01-07T01:56:18.941Z,101717.80
2018-01-07T02:01:20.286Z,101719.09
2018-01-07T02:06:21.635Z,101728.63
2018-01-07T02:11:23.778Z,101729.91
2018-01-07T02:16:25.131Z,101740.22
2018-01-07T02:21:26.462Z,101738.91
2018-01-07T02:26:27.779Z,101762.28
2018-01-07T02:31:38.996Z,101774.38
2018-01-07T02:36:40.304Z,101786.05
2018-01-07T02:41:42.360Z,101788.17
2018-01-07T02:46:43.652Z,101794.45
2018-01-07T02:51:44.985Z,101799.62
2018-01-07T02:56:47.044Z,101820.20
2018-01-07T03:01:48.416Z,101832.15
2018-01-07T03:06:49.747Z,101845.22
2018-01-07T03:11:51.074Z,101851.13
2018-01-07T03:16:52.439Z,101867.91
2018-01-07T03:21:53.779Z,101880.74
2018-01-07T03:26:55.140Z,101877.23
2018-01-07T03:31:56.460Z,101900.82
2018-01-07T03:36:57.774Z,101891.88
2018-01-07T03:41:59.082Z,101900.00
2018-01-07T03:47:01.143Z,101922.76
2018-01-07T03:52:02.471Z,101920.30
2018-01-07T03:57:03.865Z,101921.51
2018-01-07T04:02:05.251Z,101931.67
2018-01-07T04:07:06.738Z,101926.02
2018-01-07T04:12:08.189Z,101937.62
2018-01-07T04:17:09.711Z,101933.73
2018-01-07T04:22:11.268Z,101941.58
2018-01-07T04:27:12.765Z,101953.65
2018-01-07T04:32:14.161Z,101953.09
2018-01-07T04:37:15.609Z,101963.09
2018-01-07T04:42:17.080Z,101965.84
2018-01-07T04:47:18.615Z,101983.05
2018-01-07T04:52:19.940Z,101992.84
2018-01-07T04:57:21.446Z,101984.85
2018-01-07T05:02:23.014Z,102004.29
2018-01-07T05:07:24.522Z,102027.98
2018-01-07T05:12:25.982Z,102019.91
2018-01-07T05:17:27.375Z,102026.52
2018-01-07T05:22:28.903Z,102030.72
2018-01-07T05:27:30.433Z,102051.37
2018-01-07T05:32:31.943Z,102055.47
2018-01-07T05:37:33.500Z,102066.58
2018-01-07T05:42:34.989Z,102069.42
2018-01-07T05:47:36.508Z,102069.60
2018-01-07T05:52:38.028Z,102083.19
2018-01-07T05:57:39.845Z,102083.68
2018-01-07T06:02:41.431Z,102092.15
2018-01-07T06:07:42.964Z,102109.42
2018-01-07T06:12:44.504Z,102122.38
2018-01-07T06:17:46.872Z,102136.27
2018-01-07T06:22:49.180Z,102137.72
2018-01-07T06:27:50.815Z,102150.31
2018-01-07T06:32:52.438Z,102149.46
2018-01-07T06:37:54.110Z,102146.77
2018-01-07T06:42:56.419Z,102158.48
2018-01-07T06:47:57.959Z,102178.55
2018-01-07T06:52:59.482Z,102186.23
2018-01-07T06:58:01.028Z,102191.42
2018-01-07T07:03:02.379Z,102200.07
2018-01-07T07:08:03.707Z,102215.34
2018-01-07T07:13:05.058Z,102212.25
2018-01-07T07:18:06.432Z,102232.73
2018-01-07T07:23:07.751Z,102258.51
2018-01-07T07:28:09.888Z,102255.98
2018-01-07T07:33:11.227Z,102269.63
2018-01-07T07:38:12.576Z,102278.88
2018-01-07T07:43:13.916Z,102274.62
2018-01-07T07:48:15.266Z,102286.03
2018-01-07T07:53:16.579Z,102301.02
2018-01-07T07:58:18.263Z,102310.48
2018-01-07T08:03:19.618Z,102325.98
2018-01-07T08:08:20.941Z,102341.45
2018-01-07T08:13:22.330Z,102344.50
2018-01-07T08:18:23.672Z,102349.20
2018-01-07T08:23:25.751Z,102356.11
2018-01-07T08:28:27.055Z,102365.16
2018-01-07T08:33:29.131Z,102362.67
2018-01-07T08:38:30.477Z,102376.74
2018-01-07T08:43:31.848Z,102371.72
2018-01-07T08:48:33.204Z,102401.79
2018-01-07T08:53:34.738Z,102407.50
2018-01-07T08:58:37.011Z,102424.77
2018-01-07T09:03:38.348Z,102426.16
2018-01-07T09:08:40.438Z,102457.97
2018-01-07T09:13:42.514Z,102458.31
2018-01-07T09:18:43.865Z,102473.39
2018-01-07T09:23:45.193Z,102474.97
2018-01-07T09:28:46.504Z,102476.60
2018-01-07T09:33:48.458Z,102483.55
2018-01-07T09:38:49.853Z,102487.39
2018-01-07T09:43:51.218Z,102496.34
2018-01-07T09:48:53.252Z,102496.22
2018-01-07T09:53:54.718Z,102496.83
2018-01-07T09:58:56.772Z,102482.43
2018-01-07T10:03:58.067Z,102489.20
2018-01-07T10:08:59.383Z,102491.67
2018-01-07T10:14:00.708Z,102486.47
2018-01-07T10:19:02.036Z,102487.30
2018-01-07T10:24:03.415Z,102478.67
2018-01-07T10:29:04.756Z,102489.22
2018-01-07T10:34:06.842Z,102491.88
2018-01-07T10:39:08.999Z,102494.65
2018-01-07T10:44:10.339Z,102490.82
2018-01-07T10:49:11.660Z,102498.19
2018-01-07T10:54:13.000Z,102480.50
2018-01-07T10:59:14.365Z,102492.31
2018-01-07T11:04:15.688Z,102501.16
2018-01-07T11:09:17.056Z,102514.41
2018-01-07T11:14:18.396Z,102508.41
2018-01-07T11:19:20.470Z,102511.96
2018-01-07T11:24:21.884Z,102509.13
2018-01-07T11:29:23.961Z,102513.93
2018-01-07T11:34:25.293Z,102506.72
2018-01-07T11:39:27.427Z,102522.91
2018-01-07T11:44:28.855Z,102516.55
2018-01-07T11:49:30.197Z,102528.00
2018-01-07T11:54:31.608Z,102520.38
2018-01-07T11:59:33.770Z,102524.03
2018-01-07T12:04:35.994Z,102528.27
2018-01-07T12:09:37.468Z,102528.16
2018-01-07T12:14:38.860Z,102518.06
2018-01-07T12:19:41.050Z,102530.53
2018-01-07T12:24:42.379Z,102530.03
2018-01-07T12:29:45.474Z,102523.83
2018-01-07T12:34:50.823Z,102532.66
2018-01-07T12:39:53.969Z,102515.52
2018-01-07T12:44:55.344Z,102513.44
2018-01-07T12:49:56.760Z,102507.12
2018-01-07T12:54:58.116Z,102508.33
2018-01-07T12:59:59.458Z,102512.16
2018-01-07T13:05:00.880Z,102506.77
2018-01-07T13:10:02.312Z,102527.56
2018-01-07T13:15:03.684Z,102514.20
2018-01-07T13:20:05.057Z,102525.71
2018-01-07T13:25:06.395Z,102507.58
2018-01-07T13:30:07.858Z,102511.61
2018-01-07T13:35:09.232Z,102512.81
2018-01-07T13:40:10.791Z,102512.66
2018-01-07T13:45:12.275Z,102526.03
2018-01-07T13:50:13.648Z,102531.31
2018-01-07T13:55:15.418Z,102528.89
2018-01-07T14:00:17.601Z,102525.25
2018-01-07T14:05:19.660Z,102528.34
2018-01-07T14:10:21.024Z,102514.64
2018-01-07T14:15:22.354Z,102518.56
2018-01-07T14:20:23.655Z,102532.33
2018-01-07T14:25:24.979Z,102530.01
2018-01-07T14:30:26.334Z,102541.67
2018-01-07T14:35:27.633Z,102528.99
2018-01-07T14:40:28.976Z,102543.80
2018-01-07T14:45:30.311Z,102547.94
2018-01-07T14:50:31.633Z,102565.59
2018-01-07T14:55:32.961Z,102556.13
2018-01-07T15:00:34.374Z,102556.73
2018-01-07T15:05:35.908Z,102568.67
2018-01-07T15:10:37.573Z,102564.95
2018-01-07T15:15:38.901Z,102565.41
2018-01-07T15:20:40.456Z,102562.89
2018-01-07T15:25:41.789Z,102570.17
2018-01-07T15:30:43.145Z,102569.25
2018-01-07T15:35:45.182Z,102571.16
2018-01-07T15:40:46.506Z,102577.66
2018-01-07T15:45:47.890Z,102583.84
2018-01-07T15:50:49.473Z,102587.66
2018-01-07T15:55:50.834Z,102585.73
2018-01-07T16:00:52.176Z,102600.73
2018-01-07T16:05:53.577Z,102609.01
2018-01-07T16:10:54.890Z,102600.95
2018-01-07T16:15:56.990Z,102602.14
2018-01-07T16:20:58.355Z,102606.38
2018-01-07T16:25:59.678Z,102610.28
2018-01-07T16:31:01.020Z,102621.78
2018-01-07T16:36:02.356Z,102611.97
2018-01-07T16:41:04.445Z,102632.08
2018-01-07T16:46:05.752Z,102628.63
2018-01-07T16:51:07.828Z,102628.79
2018-01-07T16:56:09.132Z,102629.69
2018-01-07T17:01:10.500Z,102622.05
2018-01-07T17:06:11.846Z,102619.59
2018-01-07T17:11:13.197Z,102629.14
2018-01-07T17:16:14.572Z,102619.94
2018-01-07T17:21:15.887Z,102624.51
2018-01-07T17:26:17.197Z,102622.55
2018-01-07T17:31:19.293Z,102617.21
2018-01-07T17:36:21.372Z,102631.78
2018-01-07T17:41:22.688Z,102634.59
2018-01-07T17:46:24.836Z,102638.62
2018-01-07T17:51:26.201Z,102660.14
2018-01-07T17:56:27.589Z,102659.34
2018-01-07T18:01:29.692Z,102661.75
2018-01-07T18:06:31.799Z,102672.20
2018-01-07T18:11:33.883Z,102669.54
2018-01-07T18:16:35.211Z,102680.72
2018-01-07T18:21:36.619Z,102692.31
2018-01-07T18:26:37.933Z,102690.67
2018-01-07T18:31:39.316Z,102695.62
2018-01-07T18:36:40.692Z,102701.14
2018-01-07T18:41:42.385Z,102706.34
2018-01-07T18:46:43.751Z,102705.27
2018-01-07T18:51:45.079Z,102701.37
2018-01-07T18:56:46.404Z,102701.16
2018-01-07T19:01:52.638Z,102702.28
2018-01-07T19:06:53.988Z,102701.25
2018-01-07T19:11:55.316Z,102707.00
2018-01-07T19:16:57.021Z,102690.84
2018-01-07T19:21:58.405Z,102685.67
2018-01-07T19:27:00.457Z,102690.09
2018-01-07T19:32:01.786Z,102692.47
2018-01-07T19:37:03.132Z,102693.16
2018-01-07T19:42:05.061Z,102699.07
2018-01-07T19:47:06.530Z,102696.34
2018-01-07T19:52:07.930Z,102701.77
2018-01-07T19:57:11.031Z,102716.12
2018-01-07T20:02:12.389Z,102704.49
2018-01-07T20:07:14.515Z,102709.02
2018-01-07T20:12:15.845Z,102719.45
2018-01-07T20:17:17.535Z,102725.98
2018-01-07T20:22:18.877Z,102726.95
2018-01-07T20:27:20.211Z,102728.13
2018-01-07T20:32:21.593Z,102722.09
2018-01-07T20:37:22.930Z,102719.67
2018-01-07T20:42:24.404Z,102736.75
2018-01-07T20:47:25.798Z,102733.27
2018-01-07T20:52:27.166Z,102743.44
2018-01-07T20:57:28.523Z,102739.50
2018-01-07T21:02:29.885Z,102739.12
2018-01-07T21:07:38.854Z,102749.83
2018-01-07T21:12:40.968Z,102743.66
2018-01-07T21:17:43.057Z,102738.81
2018-01-07T21:22:44.472Z,102734.32
2018-01-07T21:27:45.979Z,102733.70
2018-01-07T21:32:47.311Z,102742.41
2018-01-07T21:37:48.654Z,102743.45
2018-01-07T21:42:50.058Z,102736.48
2018-01-07T21:47:51.359Z,102729.02
2018-01-07T21:52:52.783Z,102735.34
2018-01-07T21:57:54.261Z,102729.81
2018-01-07T22:02:55.672Z,102718.22
2018-01-07T22:07:56.986Z,102718.83
2018-01-07T22:12:59.285Z,102728.47
2018-01-07T22:18:00.609Z,102724.02
2018-01-07T22:23:01.991Z,102725.70
2018-01-07T22:28:03.359Z,102724.87
2018-01-07T22:33:05.426Z,102712.42
2018-01-07T22:38:06.768Z,102712.72
2018-01-07T22:43:08.267Z,102725.28
2018-01-07T22:48:09.603Z,102710.88
2018-01-07T22:53:11.007Z,102714.06
2018-01-07T22:58:12.464Z,102724.58
2018-01-07T23:03:13.843Z,102715.36
2018-01-07T23:08:15.196Z,102708.81
2018-01-07T23:13:16.506Z,102705.34
2018-01-07T23:18:17.837Z,102704.78
2018-01-07T23:23:19.191Z,102703.64
2018-01-07T23:28:20.529Z,102698.88
2018-01-07T23:33:21.864Z,102713.22
2018-01-07T23:38:24.007Z,102696.25
2018-01-07T23:43:25.320Z,102693.17
2018-01-07T23:48:26.658Z,102696.94
2018-01-07T23:53:27.958Z,102697.98
2018-01-07T23:58:29.324Z,102689.41
